EFMA/MHQ METAR and TAF weather

Enter ICAO airport designator
Station Type Date Time Source
EFMA METAR 2019/11/14 03:50 UTC NOAA

EFMA 140350Z AUTO 35005KT 330V030 9999 -RA NSC 05/04 Q1003


Station Type Date Time Source
EFMA Decoded METAR 2019/11/14 03:50 UTC NOAA

Mariehamn / Aland Island, Finland (EFMA) 60-07N 019-54E
Nov 13, 2019 - 10:50 PM EST / 2019.11.14 0350 UTC
Wind: from the N (350 degrees) at 6 MPH (5 KT) (direction variable):0
Visibility: greater than 7 mile(s):0
Weather: light rain
Temperature: 41 F (5 C)
Dew Point: 39 F (4 C)
Relative Humidity: 93%
Pressure (altimeter): 29.62 in. Hg (1003 hPa)
ob: EFMA 140350Z AUTO 35005KT 330V030 9999 -RA NSC 05/04 Q1003
cycle: 4

Station Type Date Time Source
EFMA TAF 2014/05/01 21:18 UTC NOAA

TAF TAF EFMA 302037Z 3021/0106 08008KT CAVOK
TEMPO 3023/0101 02010KT 6000 RASN
BECMG 0101/0103 01012KT 4000 RASN BKN010 OVC025

Example: see airport list